sensor_id;sensor_type;location;lat;lon;timestamp;pressure;altitude;pressure_sealevel;temperature;humidity
63190;BME280;49286;44.460;26.114;2022-12-29T00:02:14;101681.94;;;-0.78;100.00
63190;BME280;49286;44.460;26.114;2022-12-29T00:04:40;101829.59;;;-0.02;100.00
63190;BME280;49286;44.460;26.114;2022-12-29T00:07:06;101794.72;;;-0.49;100.00
63190;BME280;49286;44.460;26.114;2022-12-29T00:09:32;101840.59;;;-0.18;100.00
63190;BME280;49286;44.460;26.114;2022-12-29T00:11:59;101817.41;;;-0.05;100.00
63190;BME280;49286;44.460;26.114;2022-12-29T00:14:25;101757.94;;;-0.33;100.00
63190;BME280;49286;44.460;26.114;2022-12-29T00:17:09;101836.34;;;-0.04;100.00
63190;BME280;49286;44.460;26.114;2022-12-29T00:19:34;101839.94;;;-0.02;100.00
63190;BME280;49286;44.460;26.114;2022-12-29T00:22:18;101695.94;;;-0.74;100.00
63190;BME280;49286;44.460;26.114;2022-12-29T00:25:03;101706.31;;;-0.73;100.00
63190;BME280;49286;44.460;26.114;2022-12-29T00:27:47;101727.34;;;-0.67;100.00
63190;BME280;49286;44.460;26.114;2022-12-29T00:30:32;101785.78;;;-0.40;100.00
63190;BME280;49286;44.460;26.114;2022-12-29T00:33:18;101789.41;;;-0.25;100.00
63190;BME280;49286;44.460;26.114;2022-12-29T00:36:15;101843.28;;;-0.03;100.00
63190;BME280;49286;44.460;26.114;2022-12-29T00:38:46;101753.97;;;-0.41;100.00
63190;BME280;49286;44.460;26.114;2022-12-29T00:41:32;101646.53;;;-1.07;100.00
63190;BME280;49286;44.460;26.114;2022-12-29T00:44:17;101582.06;;;-1.47;100.00
63190;BME280;49286;44.460;26.114;2022-12-29T00:46:43;101762.59;;;-0.40;100.00
63190;BME280;49286;44.460;26.114;2022-12-29T00:49:10;101721.22;;;-0.55;100.00
63190;BME280;49286;44.460;26.114;2022-12-29T00:51:56;101687.81;;;-0.67;100.00
63190;BME280;49286;44.460;26.114;2022-12-29T00:54:22;101812.22;;;0.09;100.00
63190;BME280;49286;44.460;26.114;2022-12-29T00:56:49;101828.78;;;-0.01;100.00
63190;BME280;49286;44.460;26.114;2022-12-29T00:59:15;101790.88;;;-0.29;100.00
63190;BME280;49286;44.460;26.114;2022-12-29T01:01:41;101702.00;;;-0.99;100.00
63190;BME280;49286;44.460;26.114;2022-12-29T01:04:07;101749.38;;;-0.58;100.00
63190;BME280;49286;44.460;26.114;2022-12-29T01:06:34;101841.28;;;-0.07;100.00
63190;BME280;49286;44.460;26.114;2022-12-29T01:09:00;101679.28;;;-0.79;100.00
63190;BME280;49286;44.460;26.114;2022-12-29T01:11:44;101731.53;;;-0.55;100.00
63190;BME280;49286;44.460;26.114;2022-12-29T01:14:10;101817.28;;;-0.06;100.00
63190;BME280;49286;44.460;26.114;2022-12-29T01:16:35;101769.63;;;-0.38;100.00
63190;BME280;49286;44.460;26.114;2022-12-29T01:19:02;101666.47;;;-0.91;100.00
63190;BME280;49286;44.460;26.114;2022-12-29T01:21:27;101691.53;;;-0.75;100.00
63190;BME280;49286;44.460;26.114;2022-12-29T01:23:53;101827.81;;;-0.16;100.00
63190;BME280;49286;44.460;26.114;2022-12-29T01:26:19;101803.38;;;0.18;100.00
63190;BME280;49286;44.460;26.114;2022-12-29T01:28:45;101804.31;;;0.19;100.00
63190;BME280;49286;44.460;26.114;2022-12-29T01:31:13;101671.16;;;-0.72;100.00
63190;BME280;49286;44.460;26.114;2022-12-29T01:33:39;101751.38;;;-0.14;100.00
63190;BME280;49286;44.460;26.114;2022-12-29T01:36:07;101789.59;;;0.05;100.00
63190;BME280;49286;44.460;26.114;2022-12-29T01:38:34;101687.31;;;-0.61;100.00
63190;BME280;49286;44.460;26.114;2022-12-29T01:41:00;101585.06;;;-1.66;100.00
63190;BME280;49286;44.460;26.114;2022-12-29T01:43:50;101799.00;;;-0.36;100.00
63190;BME280;49286;44.460;26.114;2022-12-29T01:48:46;101787.97;;;-0.33;100.00
63190;BME280;49286;44.460;26.114;2022-12-29T01:51:11;101782.53;;;-0.38;100.00
63190;BME280;49286;44.460;26.114;2022-12-29T01:53:37;101747.28;;;-0.64;100.00
63190;BME280;49286;44.460;26.114;2022-12-29T01:56:07;101642.53;;;-1.15;100.00
63190;BME280;49286;44.460;26.114;2022-12-29T01:58:38;101749.81;;;-0.77;100.00
63190;BME280;49286;44.460;26.114;2022-12-29T02:01:04;101702.53;;;-0.78;100.00
63190;BME280;49286;44.460;26.114;2022-12-29T02:03:30;101594.47;;;-1.28;100.00
63190;BME280;49286;44.460;26.114;2022-12-29T02:06:23;101776.00;;;-0.33;100.00
63190;BME280;49286;44.460;26.114;2022-12-29T02:08:53;101731.50;;;-0.69;100.00
63190;BME280;49286;44.460;26.114;2022-12-29T02:11:21;101770.47;;;-0.64;100.00
63190;BME280;49286;44.460;26.114;2022-12-29T02:13:48;101741.00;;;-0.81;100.00
63190;BME280;49286;44.460;26.114;2022-12-29T02:28:09;101764.78;;;-0.47;100.00
63190;BME280;49286;44.460;26.114;2022-12-29T02:34:03;101704.06;;;-0.55;100.00
63190;BME280;49286;44.460;26.114;2022-12-29T02:36:58;101722.63;;;-0.60;100.00
63190;BME280;49286;44.460;26.114;2022-12-29T02:39:41;101652.38;;;-0.96;100.00
63190;BME280;49286;44.460;26.114;2022-12-29T02:44:59;101619.88;;;-1.08;100.00
63190;BME280;49286;44.460;26.114;2022-12-29T02:47:51;101771.13;;;-0.41;100.00
63190;BME280;49286;44.460;26.114;2022-12-29T02:50:40;101772.06;;;-0.66;100.00
63190;BME280;49286;44.460;26.114;2022-12-29T02:53:11;101767.06;;;-1.15;100.00
63190;BME280;49286;44.460;26.114;2022-12-29T02:55:39;101646.84;;;-1.66;100.00
63190;BME280;49286;44.460;26.114;2022-12-29T02:58:21;101778.22;;;-0.89;100.00
63190;BME280;49286;44.460;26.114;2022-12-29T03:00:56;101780.09;;;-0.75;100.00
63190;BME280;49286;44.460;26.114;2022-12-29T03:11:13;101653.44;;;-1.06;100.00
63190;BME280;49286;44.460;26.114;2022-12-29T03:17:01;101765.44;;;-0.62;100.00
63190;BME280;49286;44.460;26.114;2022-12-29T03:19:35;101624.22;;;-1.07;100.00
63190;BME280;49286;44.460;26.114;2022-12-29T03:22:07;101604.19;;;-1.24;100.00
63190;BME280;49286;44.460;26.114;2022-12-29T03:24:54;101620.84;;;-1.06;100.00
63190;BME280;49286;44.460;26.114;2022-12-29T03:27:27;101768.06;;;-0.23;100.00
63190;BME280;49286;44.460;26.114;2022-12-29T03:29:58;101688.59;;;-0.55;100.00
63190;BME280;49286;44.460;26.114;2022-12-29T03:32:33;101701.88;;;-0.62;100.00
63190;BME280;49286;44.460;26.114;2022-12-29T03:35:02;101517.31;;;-1.92;100.00
63190;BME280;49286;44.460;26.114;2022-12-29T03:37:33;101620.41;;;-1.63;100.00
63190;BME280;49286;44.460;26.114;2022-12-29T03:40:01;101686.38;;;-1.52;100.00
63190;BME280;49286;44.460;26.114;2022-12-29T03:42:29;101754.63;;;-1.20;100.00
63190;BME280;49286;44.460;26.114;2022-12-29T03:44:56;101613.41;;;-2.03;100.00
63190;BME280;49286;44.460;26.114;2022-12-29T03:47:22;101770.16;;;-0.69;100.00
63190;BME280;49286;44.460;26.114;2022-12-29T03:49:50;101645.47;;;-1.22;100.00
63190;BME280;49286;44.460;26.114;2022-12-29T03:52:16;101565.78;;;-1.59;100.00
63190;BME280;49286;44.460;26.114;2022-12-29T03:54:44;101714.97;;;-0.72;100.00
63190;BME280;49286;44.460;26.114;2022-12-29T03:57:11;101742.69;;;-0.68;100.00
63190;BME280;49286;44.460;26.114;2022-12-29T03:59:37;101778.63;;;-0.45;100.00
63190;BME280;49286;44.460;26.114;2022-12-29T04:02:02;101731.78;;;-0.77;100.00
63190;BME280;49286;44.460;26.114;2022-12-29T04:04:28;101590.50;;;-1.36;100.00
63190;BME280;49286;44.460;26.114;2022-12-29T04:06:53;101769.22;;;-0.31;100.00
63190;BME280;49286;44.460;26.114;2022-12-29T04:09:19;101725.59;;;-0.68;100.00
63190;BME280;49286;44.460;26.114;2022-12-29T04:11:44;101750.84;;;-0.62;100.00
63190;BME280;49286;44.460;26.114;2022-12-29T04:14:10;101677.78;;;-0.76;100.00
63190;BME280;49286;44.460;26.114;2022-12-29T04:16:35;101625.81;;;-1.72;100.00
63190;BME280;49286;44.460;26.114;2022-12-29T04:19:06;101765.44;;;-1.13;100.00
63190;BME280;49286;44.460;26.114;2022-12-29T04:21:34;101774.81;;;-1.01;100.00
63190;BME280;49286;44.460;26.114;2022-12-29T04:23:59;101593.44;;;-1.57;100.00
63190;BME280;49286;44.460;26.114;2022-12-29T04:26:25;101739.97;;;-0.58;100.00
63190;BME280;49286;44.460;26.114;2022-12-29T04:28:50;101595.50;;;-1.51;100.00
63190;BME280;49286;44.460;26.114;2022-12-29T04:31:17;101735.28;;;-0.77;100.00
63190;BME280;49286;44.460;26.114;2022-12-29T04:33:43;101584.06;;;-1.68;100.00
63190;BME280;49286;44.460;26.114;2022-12-29T04:36:08;101622.38;;;-1.34;100.00
63190;BME280;49286;44.460;26.114;2022-12-29T04:38:34;101570.25;;;-1.57;100.00
63190;BME280;49286;44.460;26.114;2022-12-29T04:41:00;101737.78;;;-0.65;100.00
63190;BME280;49286;44.460;26.114;2022-12-29T04:43:26;101726.34;;;-0.69;100.00
63190;BME280;49286;44.460;26.114;2022-12-29T04:45:51;101608.88;;;-1.43;100.00
63190;BME280;49286;44.460;26.114;2022-12-29T04:48:17;101632.34;;;-1.14;100.00
63190;BME280;49286;44.460;26.114;2022-12-29T04:50:43;101729.25;;;-0.64;100.00
63190;BME280;49286;44.460;26.114;2022-12-29T04:53:09;101700.47;;;-0.83;100.00
63190;BME280;49286;44.460;26.114;2022-12-29T04:55:34;101675.31;;;-1.13;100.00
63190;BME280;49286;44.460;26.114;2022-12-29T04:58:00;101631.91;;;-1.20;100.00
63190;BME280;49286;44.460;26.114;2022-12-29T05:00:25;101539.66;;;-1.65;100.00
63190;BME280;49286;44.460;26.114;2022-12-29T05:02:51;101561.75;;;-1.56;100.00
63190;BME280;49286;44.460;26.114;2022-12-29T05:05:17;101730.84;;;-0.53;100.00
63190;BME280;49286;44.460;26.114;2022-12-29T05:07:43;101653.19;;;-0.97;100.00
63190;BME280;49286;44.460;26.114;2022-12-29T05:10:09;101749.59;;;-0.55;100.00
63190;BME280;49286;44.460;26.114;2022-12-29T05:12:35;101629.09;;;-1.50;100.00
63190;BME280;49286;44.460;26.114;2022-12-29T05:15:02;101718.22;;;-0.75;100.00
63190;BME280;49286;44.460;26.114;2022-12-29T05:17:30;101682.84;;;-0.64;100.00
63190;BME280;49286;44.460;26.114;2022-12-29T05:19:56;101739.41;;;-0.27;100.00
63190;BME280;49286;44.460;26.114;2022-12-29T05:22:22;101731.44;;;-0.44;100.00
63190;BME280;49286;44.460;26.114;2022-12-29T05:24:47;101575.13;;;-1.48;100.00
63190;BME280;49286;44.460;26.114;2022-12-29T05:27:13;101740.34;;;-0.65;100.00
63190;BME280;49286;44.460;26.114;2022-12-29T05:29:38;101744.97;;;-0.21;100.00
63190;BME280;49286;44.460;26.114;2022-12-29T05:32:04;101650.91;;;-0.66;100.00
63190;BME280;49286;44.460;26.114;2022-12-29T05:34:30;101618.09;;;-0.95;100.00
63190;BME280;49286;44.460;26.114;2022-12-29T05:36:55;101712.59;;;-0.43;100.00
63190;BME280;49286;44.460;26.114;2022-12-29T05:39:22;101690.75;;;-0.61;100.00
63190;BME280;49286;44.460;26.114;2022-12-29T05:41:48;101597.47;;;-1.09;100.00
63190;BME280;49286;44.460;26.114;2022-12-29T05:44:14;101621.91;;;-0.77;100.00
63190;BME280;49286;44.460;26.114;2022-12-29T05:46:42;101622.88;;;-0.75;100.00
63190;BME280;49286;44.460;26.114;2022-12-29T05:49:08;101548.44;;;-1.23;100.00
63190;BME280;49286;44.460;26.114;2022-12-29T05:51:33;101590.06;;;-1.04;100.00
63190;BME280;49286;44.460;26.114;2022-12-29T05:53:59;101643.38;;;-0.76;100.00
63190;BME280;49286;44.460;26.114;2022-12-29T05:56:25;101713.09;;;-0.75;100.00
63190;BME280;49286;44.460;26.114;2022-12-29T05:58:50;101577.66;;;-1.23;100.00
63190;BME280;49286;44.460;26.114;2022-12-29T06:01:16;101700.41;;;-0.45;100.00
63190;BME280;49286;44.460;26.114;2022-12-29T06:03:41;101744.84;;;-0.23;100.00
63190;BME280;49286;44.460;26.114;2022-12-29T06:06:07;101721.75;;;-0.21;100.00
63190;BME280;49286;44.460;26.114;2022-12-29T06:08:32;101588.59;;;-1.00;100.00
63190;BME280;49286;44.460;26.114;2022-12-29T06:10:58;101654.50;;;-0.64;100.00
63190;BME280;49286;44.460;26.114;2022-12-29T06:13:23;101716.69;;;-0.46;100.00
63190;BME280;49286;44.460;26.114;2022-12-29T06:15:49;101766.47;;;-0.20;100.00
63190;BME280;49286;44.460;26.114;2022-12-29T06:18:15;101726.19;;;-0.32;100.00
63190;BME280;49286;44.460;26.114;2022-12-29T06:20:40;101595.63;;;-0.98;100.00
63190;BME280;49286;44.460;26.114;2022-12-29T06:23:06;101691.19;;;-0.55;100.00
63190;BME280;49286;44.460;26.114;2022-12-29T06:25:31;101718.88;;;-0.39;100.00
63190;BME280;49286;44.460;26.114;2022-12-29T06:27:58;101744.66;;;-0.12;100.00
63190;BME280;49286;44.460;26.114;2022-12-29T06:30:24;101776.78;;;0.06;100.00
63190;BME280;49286;44.460;26.114;2022-12-29T06:32:49;101638.56;;;-0.58;100.00
63190;BME280;49286;44.460;26.114;2022-12-29T06:35:16;101496.38;;;-1.71;100.00
63190;BME280;49286;44.460;26.114;2022-12-29T06:37:42;101741.38;;;-0.10;100.00
63190;BME280;49286;44.460;26.114;2022-12-29T06:40:09;101755.63;;;0.25;100.00
63190;BME280;49286;44.460;26.114;2022-12-29T06:42:34;101673.59;;;-0.07;100.00
63190;BME280;49286;44.460;26.114;2022-12-29T06:45:00;101578.75;;;-0.66;100.00
63190;BME280;49286;44.460;26.114;2022-12-29T06:47:26;101797.63;;;0.23;100.00
63190;BME280;49286;44.460;26.114;2022-12-29T06:49:51;101776.66;;;0.45;100.00
63190;BME280;49286;44.460;26.114;2022-12-29T06:52:18;101674.97;;;0.01;100.00
63190;BME280;49286;44.460;26.114;2022-12-29T06:54:44;101724.88;;;0.28;100.00
63190;BME280;49286;44.460;26.114;2022-12-29T06:57:11;101758.50;;;0.71;100.00
63190;BME280;49286;44.460;26.114;2022-12-29T06:59:36;101621.69;;;0.02;100.00
63190;BME280;49286;44.460;26.114;2022-12-29T07:02:01;101765.16;;;0.96;100.00
63190;BME280;49286;44.460;26.114;2022-12-29T07:04:28;101745.13;;;0.92;100.00
63190;BME280;49286;44.460;26.114;2022-12-29T07:06:53;101625.38;;;0.05;100.00
63190;BME280;49286;44.460;26.114;2022-12-29T07:09:19;101738.75;;;0.87;100.00
63190;BME280;49286;44.460;26.114;2022-12-29T07:11:44;101766.38;;;1.16;100.00
63190;BME280;49286;44.460;26.114;2022-12-29T07:14:11;101650.22;;;0.46;100.00
63190;BME280;49286;44.460;26.114;2022-12-29T07:16:36;101610.94;;;0.37;100.00
63190;BME280;49286;44.460;26.114;2022-12-29T07:19:02;101614.88;;;0.45;100.00
63190;BME280;49286;44.460;26.114;2022-12-29T07:21:28;101641.00;;;0.65;100.00
63190;BME280;49286;44.460;26.114;2022-12-29T07:23:54;101684.16;;;0.80;100.00
63190;BME280;49286;44.460;26.114;2022-12-29T07:26:19;101678.72;;;0.76;100.00
63190;BME280;49286;44.460;26.114;2022-12-29T07:28:45;101753.94;;;1.38;100.00
63190;BME280;49286;44.460;26.114;2022-12-29T07:31:18;101776.38;;;1.39;100.00
63190;BME280;49286;44.460;26.114;2022-12-29T07:33:45;101633.56;;;0.41;100.00
63190;BME280;49286;44.460;26.114;2022-12-29T07:36:12;101693.72;;;1.11;100.00
63190;BME280;49286;44.460;26.114;2022-12-29T07:38:38;101730.75;;;1.55;100.00
63190;BME280;49286;44.460;26.114;2022-12-29T07:41:03;101587.75;;;0.81;100.00
63190;BME280;49286;44.460;26.114;2022-12-29T07:43:29;101589.25;;;0.63;100.00
63190;BME280;49286;44.460;26.114;2022-12-29T07:45:54;101611.47;;;0.89;100.00
63190;BME280;49286;44.460;26.114;2022-12-29T07:48:21;101659.66;;;1.33;100.00
63190;BME280;49286;44.460;26.114;2022-12-29T07:50:47;101629.88;;;1.40;100.00
63190;BME280;49286;44.460;26.114;2022-12-29T07:53:12;101749.25;;;1.92;100.00
63190;BME280;49286;44.460;26.114;2022-12-29T07:55:38;101621.50;;;1.44;100.00
63190;BME280;49286;44.460;26.114;2022-12-29T07:58:04;101771.75;;;2.56;100.00
63190;BME280;49286;44.460;26.114;2022-12-29T08:00:29;101693.91;;;2.21;100.00
63190;BME280;49286;44.460;26.114;2022-12-29T08:02:55;101647.13;;;2.02;100.00
63190;BME280;49286;44.460;26.114;2022-12-29T08:05:20;101596.63;;;1.94;100.00
63190;BME280;49286;44.460;26.114;2022-12-29T08:07:46;101650.72;;;2.20;100.00
63190;BME280;49286;44.460;26.114;2022-12-29T08:10:12;101759.94;;;3.10;100.00
63190;BME280;49286;44.460;26.114;2022-12-29T08:12:39;101764.03;;;3.23;100.00
63190;BME280;49286;44.460;26.114;2022-12-29T08:15:06;101719.81;;;3.20;100.00
63190;BME280;49286;44.460;26.114;2022-12-29T08:17:32;101747.28;;;3.50;100.00
63190;BME280;49286;44.460;26.114;2022-12-29T08:19:57;101602.41;;;2.71;100.00
63190;BME280;49286;44.460;26.114;2022-12-29T08:22:23;101682.59;;;3.19;100.00
63190;BME280;49286;44.460;26.114;2022-12-29T08:24:48;101739.09;;;3.59;100.00
63190;BME280;49286;44.460;26.114;2022-12-29T08:27:14;101754.69;;;3.77;100.00
63190;BME280;49286;44.460;26.114;2022-12-29T08:29:40;101599.97;;;3.09;100.00
63190;BME280;49286;44.460;26.114;2022-12-29T08:32:05;101761.78;;;3.81;100.00
63190;BME280;49286;44.460;26.114;2022-12-29T08:34:32;101721.00;;;3.78;100.00
63190;BME280;49286;44.460;26.114;2022-12-29T08:36:57;101744.16;;;4.10;100.00
63190;BME280;49286;44.460;26.114;2022-12-29T08:39:23;101634.09;;;3.52;100.00
63190;BME280;49286;44.460;26.114;2022-12-29T08:41:50;101727.81;;;4.12;100.00
63190;BME280;49286;44.460;26.114;2022-12-29T08:44:16;101737.78;;;4.40;100.00
63190;BME280;49286;44.460;26.114;2022-12-29T08:46:41;101716.09;;;4.40;100.00
63190;BME280;49286;44.460;26.114;2022-12-29T08:49:06;101737.25;;;4.48;100.00
63190;BME280;49286;44.460;26.114;2022-12-29T08:51:32;101716.84;;;4.37;100.00
63190;BME280;49286;44.460;26.114;2022-12-29T08:53:58;101735.78;;;4.35;100.00
63190;BME280;49286;44.460;26.114;2022-12-29T08:56:24;101717.28;;;4.47;100.00
63190;BME280;49286;44.460;26.114;2022-12-29T08:58:51;101705.09;;;4.65;100.00
63190;BME280;49286;44.460;26.114;2022-12-29T09:01:16;101728.50;;;4.84;100.00
63190;BME280;49286;44.460;26.114;2022-12-29T09:03:42;101712.78;;;4.81;100.00
63190;BME280;49286;44.460;26.114;2022-12-29T09:06:07;101555.22;;;4.06;100.00
63190;BME280;49286;44.460;26.114;2022-12-29T09:08:33;101711.38;;;5.09;100.00
63190;BME280;49286;44.460;26.114;2022-12-29T09:13:33;101675.00;;;4.90;100.00
63190;BME280;49286;44.460;26.114;2022-12-29T09:15:59;101559.09;;;4.35;100.00
63190;BME280;49286;44.460;26.114;2022-12-29T09:18:24;101671.22;;;5.02;100.00
63190;BME280;49286;44.460;26.114;2022-12-29T09:20:56;101674.31;;;5.15;100.00
63190;BME280;49286;44.460;26.114;2022-12-29T09:23:21;101690.59;;;5.30;100.00
63190;BME280;49286;44.460;26.114;2022-12-29T09:25:47;101663.41;;;5.23;100.00
63190;BME280;49286;44.460;26.114;2022-12-29T09:28:13;101679.72;;;5.40;100.00
63190;BME280;49286;44.460;26.114;2022-12-29T09:30:38;101632.50;;;5.31;100.00
63190;BME280;49286;44.460;26.114;2022-12-29T09:33:04;101692.63;;;5.58;100.00
63190;BME280;49286;44.460;26.114;2022-12-29T09:35:30;101692.16;;;5.68;100.00
63190;BME280;49286;44.460;26.114;2022-12-29T09:37:55;101683.06;;;5.80;100.00
63190;BME280;49286;44.460;26.114;2022-12-29T09:40:27;101674.84;;;5.69;100.00
63190;BME280;49286;44.460;26.114;2022-12-29T09:43:17;101684.09;;;6.04;100.00
63190;BME280;49286;44.460;26.114;2022-12-29T09:48:44;101661.38;;;6.24;100.00
63190;BME280;49286;44.460;26.114;2022-12-29T09:51:15;101634.44;;;6.01;100.00
63190;BME280;49286;44.460;26.114;2022-12-29T09:53:57;101521.28;;;5.48;100.00
63190;BME280;49286;44.460;26.114;2022-12-29T09:56:25;101537.91;;;5.52;100.00
63190;BME280;49286;44.460;26.114;2022-12-29T10:03:55;101661.56;;;6.29;100.00
63190;BME280;49286;44.460;26.114;2022-12-29T10:06:23;101662.47;;;6.53;100.00
63190;BME280;49286;44.460;26.114;2022-12-29T10:11:35;101649.16;;;6.70;100.00
63190;BME280;49286;44.460;26.114;2022-12-29T10:14:33;101645.56;;;6.92;100.00
63190;BME280;49286;44.460;26.114;2022-12-29T10:22:31;101505.84;;;5.99;100.00
63190;BME280;49286;44.460;26.114;2022-12-29T10:25:02;101629.06;;;6.67;100.00
63190;BME280;49286;44.460;26.114;2022-12-29T10:27:34;101528.56;;;6.27;100.00
63190;BME280;49286;44.460;26.114;2022-12-29T10:30:02;101518.44;;;6.35;100.00
63190;BME280;49286;44.460;26.114;2022-12-29T10:35:36;101640.59;;;7.24;100.00
63190;BME280;49286;44.460;26.114;2022-12-29T10:40:58;101624.34;;;7.88;100.00
63190;BME280;49286;44.460;26.114;2022-12-29T10:43:36;101512.41;;;7.16;100.00
63190;BME280;49286;44.460;26.114;2022-12-29T10:46:14;101524.50;;;7.70;100.00
63190;BME280;49286;44.460;26.114;2022-12-29T10:48:41;101610.47;;;8.50;100.00
63190;BME280;49286;44.460;26.114;2022-12-29T10:51:22;101512.34;;;7.70;100.00
63190;BME280;49286;44.460;26.114;2022-12-29T10:53:52;101524.22;;;7.91;100.00
63190;BME280;49286;44.460;26.114;2022-12-29T10:56:35;101499.75;;;8.19;100.00
63190;BME280;49286;44.460;26.114;2022-12-29T10:59:22;101463.31;;;8.25;100.00
63190;BME280;49286;44.460;26.114;2022-12-29T11:04:55;101613.50;;;9.33;100.00
63190;BME280;49286;44.460;26.114;2022-12-29T11:07:24;101477.88;;;8.82;100.00
63190;BME280;49286;44.460;26.114;2022-12-29T11:09:51;101596.88;;;9.69;100.00
63190;BME280;49286;44.460;26.114;2022-12-29T11:12:30;101600.41;;;9.33;100.00
63190;BME280;49286;44.460;26.114;2022-12-29T11:18:03;101598.69;;;9.34;100.00
63190;BME280;49286;44.460;26.114;2022-12-29T11:20:37;101607.16;;;9.60;100.00
63190;BME280;49286;44.460;26.114;2022-12-29T11:26:25;101592.81;;;9.07;100.00
63190;BME280;49286;44.460;26.114;2022-12-29T11:34:07;101574.28;;;9.00;100.00
63190;BME280;49286;44.460;26.114;2022-12-29T11:36:34;101506.25;;;8.65;100.00
63190;BME280;49286;44.460;26.114;2022-12-29T11:39:02;101478.78;;;8.49;100.00
63190;BME280;49286;44.460;26.114;2022-12-29T11:41:29;101468.16;;;8.41;100.00
63190;BME280;49286;44.460;26.114;2022-12-29T11:43:59;101527.94;;;8.61;100.00
63190;BME280;49286;44.460;26.114;2022-12-29T11:46:34;101576.63;;;8.89;100.00
63190;BME280;49286;44.460;26.114;2022-12-29T11:49:02;101485.72;;;8.47;100.00
63190;BME280;49286;44.460;26.114;2022-12-29T11:51:38;101555.63;;;8.86;100.00
63190;BME280;49286;44.460;26.114;2022-12-29T11:54:19;101567.78;;;8.84;100.00
63190;BME280;49286;44.460;26.114;2022-12-29T11:56:48;101553.81;;;8.50;100.00
63190;BME280;49286;44.460;26.114;2022-12-29T12:04:41;101575.38;;;8.75;100.00
63190;BME280;49286;44.460;26.114;2022-12-29T12:08:16;101562.00;;;8.62;100.00
63190;BME280;49286;44.460;26.114;2022-12-29T12:10:29;101549.88;;;8.04;100.00
63190;BME280;49286;44.460;26.114;2022-12-29T12:13:08;101455.09;;;7.79;100.00
63190;BME280;49286;44.460;26.114;2022-12-29T12:15:44;101424.00;;;7.57;100.00
63190;BME280;49286;44.460;26.114;2022-12-29T12:18:34;101543.78;;;8.35;100.00
63190;BME280;49286;44.460;26.114;2022-12-29T12:21:12;101512.50;;;8.07;100.00
63190;BME280;49286;44.460;26.114;2022-12-29T12:23:57;101554.91;;;8.28;100.00
63190;BME280;49286;44.460;26.114;2022-12-29T12:26:42;101405.75;;;7.58;100.00
63190;BME280;49286;44.460;26.114;2022-12-29T12:29:14;101534.03;;;8.30;100.00
63190;BME280;49286;44.460;26.114;2022-12-29T12:31:55;101423.22;;;7.59;100.00
63190;BME280;49286;44.460;26.114;2022-12-29T12:40:29;101527.03;;;8.29;100.00
63190;BME280;49286;44.460;26.114;2022-12-29T12:43:22;101533.84;;;8.54;100.00
63190;BME280;49286;44.460;26.114;2022-12-29T12:46:02;101500.13;;;8.64;100.00
63190;BME280;49286;44.460;26.114;2022-12-29T13:00:07;101519.44;;;9.04;100.00
63190;BME280;49286;44.460;26.114;2022-12-29T13:02:36;101397.47;;;8.07;100.00
63190;BME280;49286;44.460;26.114;2022-12-29T13:16:05;101517.03;;;8.44;100.00
63190;BME280;49286;44.460;26.114;2022-12-29T13:18:48;101386.16;;;7.74;100.00
63190;BME280;49286;44.460;26.114;2022-12-29T13:21:31;101462.53;;;8.28;100.00
63190;BME280;49286;44.460;26.114;2022-12-29T13:27:20;101492.13;;;8.27;100.00
63190;BME280;49286;44.460;26.114;2022-12-29T13:33:01;101515.28;;;8.43;100.00
63190;BME280;49286;44.460;26.114;2022-12-29T13:38:11;101510.16;;;8.48;100.00
63190;BME280;49286;44.460;26.114;2022-12-29T13:40:41;101513.47;;;8.42;100.00
63190;BME280;49286;44.460;26.114;2022-12-29T13:43:09;101403.25;;;7.61;100.00
63190;BME280;49286;44.460;26.114;2022-12-29T13:45:35;101521.03;;;8.33;100.00
63190;BME280;49286;44.460;26.114;2022-12-29T13:48:10;101476.44;;;7.95;100.00
63190;BME280;49286;44.460;26.114;2022-12-29T13:50:40;101516.25;;;7.86;100.00
63190;BME280;49286;44.460;26.114;2022-12-29T13:56:24;101471.41;;;7.71;100.00
63190;BME280;49286;44.460;26.114;2022-12-29T14:01:54;101506.19;;;7.98;100.00
63190;BME280;49286;44.460;26.114;2022-12-29T14:04:28;101520.28;;;8.05;100.00
63190;BME280;49286;44.460;26.114;2022-12-29T14:07:03;101399.28;;;7.15;100.00
63190;BME280;49286;44.460;26.114;2022-12-29T14:14:45;101386.34;;;6.90;100.00
63190;BME280;49286;44.460;26.114;2022-12-29T14:17:11;101410.69;;;6.89;100.00
63190;BME280;49286;44.460;26.114;2022-12-29T14:19:40;101518.31;;;7.37;100.00
63190;BME280;49286;44.460;26.114;2022-12-29T14:22:08;101389.31;;;6.73;100.00
63190;BME280;49286;44.460;26.114;2022-12-29T14:34:59;101460.97;;;7.12;100.00
63190;BME280;49286;44.460;26.114;2022-12-29T14:37:35;101378.94;;;6.48;100.00
63190;BME280;49286;44.460;26.114;2022-12-29T14:42:48;101474.81;;;6.82;100.00
63190;BME280;49286;44.460;26.114;2022-12-29T14:47:50;101431.72;;;6.41;100.00
63190;BME280;49286;44.460;26.114;2022-12-29T14:52:54;101486.13;;;6.83;100.00
63190;BME280;49286;44.460;26.114;2022-12-29T14:55:46;101388.03;;;6.06;100.00
63190;BME280;49286;44.460;26.114;2022-12-29T15:00:44;101481.44;;;6.72;100.00
63190;BME280;49286;44.460;26.114;2022-12-29T15:06:08;101493.00;;;6.53;100.00
63190;BME280;49286;44.460;26.114;2022-12-29T15:08:48;101475.56;;;6.27;100.00
63190;BME280;49286;44.460;26.114;2022-12-29T15:13:57;101317.31;;;5.46;100.00
63190;BME280;49286;44.460;26.114;2022-12-29T15:18:48;101381.69;;;5.76;100.00
63190;BME280;49286;44.460;26.114;2022-12-29T15:21:15;101464.56;;;6.36;100.00
63190;BME280;49286;44.460;26.114;2022-12-29T15:23:43;101397.63;;;5.85;100.00